createdAt,value
2023-04-30T00:00:09.011Z,16.83
2023-04-30T00:05:32.489Z,15.93
2023-04-30T00:10:35.745Z,13.43
2023-04-30T00:15:39.069Z,16.70
2023-04-30T00:20:42.169Z,17.67
2023-04-30T00:25:45.579Z,16.13
2023-04-30T00:30:49.017Z,21.07
2023-04-30T00:35:52.323Z,16.37
2023-04-30T00:40:55.626Z,16.37
2023-04-30T00:46:04.239Z,14.97
2023-04-30T00:51:07.707Z,21.57
2023-04-30T00:56:13.258Z,15.37
2023-04-30T01:01:16.705Z,14.30
2023-04-30T01:06:20.191Z,15.17
2023-04-30T01:11:35.073Z,17.97
2023-04-30T01:16:53.564Z,16.03
2023-04-30T01:22:02.011Z,19.53
2023-04-30T01:27:20.385Z,14.93
2023-04-30T01:32:23.787Z,14.13
2023-04-30T01:37:45.532Z,18.23
2023-04-30T01:43:12.884Z,16.17
2023-04-30T01:48:34.608Z,15.87
2023-04-30T01:53:44.394Z,16.13
2023-04-30T01:58:50.437Z,16.50
2023-04-30T02:03:53.762Z,17.13
2023-04-30T02:09:02.995Z,20.07
2023-04-30T02:14:06.573Z,16.00
2023-04-30T02:19:10.081Z,13.73
2023-04-30T02:24:13.234Z,18.23
2023-04-30T02:29:17.735Z,14.87
2023-04-30T02:34:21.337Z,14.43
2023-04-30T02:39:24.620Z,16.77
2023-04-30T02:44:27.863Z,13.43
2023-04-30T02:49:31.109Z,19.17
2023-04-30T02:54:34.947Z,18.13
2023-04-30T02:59:39.194Z,13.90
2023-04-30T03:04:42.602Z,14.63
2023-04-30T03:09:46.941Z,14.07
2023-04-30T03:14:50.191Z,15.60
2023-04-30T03:19:53.801Z,13.90
2023-04-30T03:24:57.412Z,16.97
2023-04-30T03:30:00.723Z,15.60
2023-04-30T03:35:04.559Z,15.20
2023-04-30T03:40:08.953Z,13.77
2023-04-30T03:45:12.197Z,12.80
2023-04-30T03:50:15.734Z,16.60
2023-04-30T03:55:19.095Z,16.17
2023-04-30T04:00:22.324Z,13.23
2023-04-30T04:05:26.199Z,11.67
2023-04-30T04:10:29.738Z,18.07
2023-04-30T04:15:33.713Z,12.77
2023-04-30T04:20:36.884Z,17.40
2023-04-30T04:25:40.161Z,12.97
2023-04-30T04:30:43.653Z,13.53
2023-04-30T04:35:46.856Z,15.43
2023-04-30T04:40:54.673Z,12.67
2023-04-30T04:45:57.977Z,14.27
2023-04-30T04:51:01.633Z,14.10
2023-04-30T04:56:05.416Z,16.60
2023-04-30T05:01:09.593Z,14.33
2023-04-30T05:06:12.902Z,17.23
2023-04-30T05:11:17.097Z,18.77
2023-04-30T05:16:20.796Z,15.87
2023-04-30T05:21:24.106Z,13.57
2023-04-30T05:26:27.565Z,11.87
2023-04-30T05:31:32.785Z,18.47
2023-04-30T05:36:36.014Z,15.37
2023-04-30T05:41:39.287Z,10.97
2023-04-30T05:46:42.933Z,13.83
2023-04-30T05:51:46.495Z,11.87
2023-04-30T05:56:49.799Z,11.97
2023-04-30T06:01:53.369Z,11.20
2023-04-30T06:06:56.688Z,13.17
2023-04-30T06:12:00.051Z,9.87
2023-04-30T06:17:03.787Z,6.30
2023-04-30T06:22:16.181Z,6.87
2023-04-30T06:27:22.718Z,10.00
2023-04-30T06:32:26.427Z,8.53
2023-04-30T06:37:31.465Z,6.63
2023-04-30T06:42:39.617Z,7.83
2023-04-30T06:47:43.388Z,8.73
2023-04-30T06:52:46.644Z,8.37
2023-04-30T06:57:49.876Z,5.70
2023-04-30T07:02:53.556Z,5.07
2023-04-30T07:07:58.171Z,4.80
2023-04-30T07:13:03.453Z,5.23
2023-04-30T07:18:09.457Z,9.40
2023-04-30T07:23:13.240Z,10.73
2023-04-30T07:28:17.350Z,6.60
2023-04-30T07:33:20.973Z,8.30
2023-04-30T07:38:24.299Z,6.10
2023-04-30T07:43:27.429Z,6.37
2023-04-30T07:48:31.230Z,3.33
2023-04-30T07:53:34.801Z,5.93
2023-04-30T07:58:37.996Z,4.77
2023-04-30T08:03:41.296Z,5.90
2023-04-30T08:08:44.517Z,7.37
2023-04-30T08:13:48.306Z,3.93
2023-04-30T08:18:58.820Z,6.50
2023-04-30T08:24:02.785Z,6.30
2023-04-30T08:29:06.109Z,2.97
2023-04-30T08:34:09.373Z,5.47
2023-04-30T08:39:13.577Z,3.47
2023-04-30T08:44:23.957Z,5.40
2023-04-30T08:49:28.668Z,4.03
2023-04-30T08:54:33.185Z,4.13
2023-04-30T08:59:36.778Z,2.97
2023-04-30T09:04:39.924Z,4.97
2023-04-30T09:09:43.359Z,3.40
2023-04-30T09:15:19.215Z,6.67
2023-04-30T09:20:24.463Z,3.77
2023-04-30T09:25:40.228Z,2.77
2023-04-30T09:30:43.873Z,4.80
2023-04-30T09:35:47.311Z,4.70
2023-04-30T09:40:50.790Z,5.70
2023-04-30T09:45:54.184Z,6.50
2023-04-30T09:50:57.536Z,3.50
2023-04-30T09:56:07.580Z,4.53
2023-04-30T10:01:14.103Z,5.23
2023-04-30T10:06:19.849Z,3.57
2023-04-30T10:11:28.472Z,2.67
2023-04-30T10:16:41.323Z,2.13
2023-04-30T10:21:47.290Z,3.53
2023-04-30T10:26:50.917Z,6.63
2023-04-30T10:32:04.857Z,3.43
2023-04-30T10:37:25.126Z,4.40
2023-04-30T10:42:28.976Z,5.77
2023-04-30T10:47:32.763Z,3.73
2023-04-30T10:52:43.292Z,7.27
2023-04-30T10:57:48.785Z,6.07
2023-04-30T11:02:58.491Z,5.53
2023-04-30T11:08:04.918Z,4.10
2023-04-30T11:13:10.655Z,3.33
2023-04-30T11:18:15.030Z,6.13
2023-04-30T11:23:38.230Z,4.07
2023-04-30T11:28:55.322Z,3.43
2023-04-30T11:34:01.048Z,4.00
2023-04-30T11:39:08.349Z,4.33
2023-04-30T11:44:27.860Z,5.43
2023-04-30T11:49:33.111Z,3.93
2023-04-30T11:54:40.403Z,4.60
2023-04-30T11:59:44.107Z,5.23
2023-04-30T12:04:51.670Z,6.93
2023-04-30T12:10:01.839Z,5.70
2023-04-30T12:15:21.036Z,4.13
2023-04-30T12:20:29.698Z,7.27
2023-04-30T12:25:41.457Z,3.67
2023-04-30T12:30:47.821Z,4.27
2023-04-30T12:35:54.472Z,3.03
2023-04-30T12:41:00.684Z,2.20
2023-04-30T12:46:04.860Z,6.00
2023-04-30T12:51:12.997Z,3.27
2023-04-30T12:56:20.196Z,3.97
2023-04-30T13:01:25.893Z,4.00
2023-04-30T13:06:33.549Z,5.30
2023-04-30T13:11:38.152Z,5.33
2023-04-30T13:16:42.287Z,4.50
2023-04-30T13:21:46.326Z,4.77
2023-04-30T13:26:50.042Z,5.57
2023-04-30T13:31:57.063Z,4.68
2023-04-30T13:37:00.903Z,4.25
2023-04-30T13:42:05.594Z,3.42
2023-04-30T13:47:11.334Z,6.55
2023-04-30T13:52:15.850Z,4.47
2023-04-30T13:57:19.476Z,3.17
2023-04-30T14:02:23.623Z,4.88
2023-04-30T14:07:27.424Z,6.33
2023-04-30T14:12:32.501Z,6.57
2023-04-30T14:17:36.134Z,4.63
2023-04-30T14:22:43.097Z,4.20
2023-04-30T14:27:46.598Z,3.53
2023-04-30T14:32:52.848Z,3.88
2023-04-30T14:37:56.209Z,3.95
2023-04-30T14:42:59.524Z,5.88
2023-04-30T14:48:05.169Z,4.65
2023-04-30T14:53:09.883Z,2.63
2023-04-30T14:58:15.549Z,6.63
2023-04-30T15:03:19.349Z,4.03
2023-04-30T15:08:23.857Z,5.50
2023-04-30T15:13:28.858Z,4.05
2023-04-30T15:18:33.197Z,3.55
2023-04-30T15:23:39.697Z,4.07
2023-04-30T15:28:43.577Z,3.47
2023-04-30T15:33:46.866Z,3.10
2023-04-30T15:38:50.244Z,4.32
2023-04-30T15:43:53.922Z,3.97
2023-04-30T15:48:57.448Z,4.70
2023-04-30T15:54:02.778Z,3.83
2023-04-30T15:59:09.288Z,2.65
2023-04-30T16:04:12.893Z,3.75
2023-04-30T16:09:23.083Z,3.75
2023-04-30T16:14:26.303Z,3.08
2023-04-30T16:19:29.539Z,3.63
2023-04-30T16:24:32.830Z,5.70
2023-04-30T16:29:36.977Z,5.22
2023-04-30T16:34:44.905Z,3.72
2023-04-30T16:39:51.469Z,2.08
2023-04-30T16:44:56.181Z,4.28
2023-04-30T16:49:59.913Z,4.63
2023-04-30T16:55:05.395Z,4.80
2023-04-30T17:00:12.021Z,3.63
2023-04-30T17:05:16.486Z,3.88
2023-04-30T17:10:20.100Z,3.50
2023-04-30T17:15:24.012Z,2.22
2023-04-30T17:20:28.049Z,4.20
2023-04-30T17:25:34.009Z,3.13
2023-04-30T17:30:37.685Z,3.22
2023-04-30T17:35:42.602Z,5.45
2023-04-30T17:40:46.501Z,2.58
2023-04-30T17:45:55.179Z,3.60
2023-04-30T17:50:59.989Z,5.57
2023-04-30T17:56:06.584Z,3.33
2023-04-30T18:01:11.162Z,2.90
2023-04-30T18:06:15.416Z,5.00
2023-04-30T18:11:19.846Z,5.30
2023-04-30T18:16:24.566Z,5.10
2023-04-30T18:21:29.348Z,5.00
2023-04-30T18:26:33.144Z,5.83
2023-04-30T18:31:38.239Z,4.43
2023-04-30T18:36:44.628Z,6.37
2023-04-30T18:41:50.203Z,7.53
2023-04-30T18:46:57.225Z,5.90
2023-04-30T18:52:02.626Z,5.50
2023-04-30T18:57:12.002Z,6.30
2023-04-30T19:02:17.009Z,6.17
2023-04-30T19:07:24.039Z,5.60
2023-04-30T19:12:30.685Z,6.47
2023-04-30T19:17:35.860Z,6.27
2023-04-30T19:22:41.354Z,6.43
2023-04-30T19:27:46.339Z,8.67
2023-04-30T19:32:52.087Z,6.43
2023-04-30T19:37:58.151Z,7.93
2023-04-30T19:43:04.722Z,9.00
2023-04-30T19:48:15.750Z,6.73
2023-04-30T19:53:19.307Z,5.97
2023-04-30T19:58:25.116Z,7.63
2023-04-30T20:03:29.814Z,6.00
2023-04-30T20:08:34.088Z,8.23
2023-04-30T20:13:41.282Z,9.40
2023-04-30T20:18:49.244Z,9.13
2023-04-30T20:23:53.613Z,8.50
2023-04-30T20:28:58.028Z,9.20
2023-04-30T20:34:06.467Z,9.37
2023-04-30T20:39:12.279Z,11.13
2023-04-30T20:44:17.148Z,12.27
2023-04-30T20:49:21.026Z,13.13
2023-04-30T20:54:26.094Z,10.43
2023-04-30T20:59:31.024Z,10.27
2023-04-30T21:04:34.594Z,8.20
2023-04-30T21:09:38.708Z,6.57
2023-04-30T21:14:41.994Z,6.47
2023-04-30T21:19:45.727Z,12.07
2023-04-30T21:24:52.442Z,8.97
2023-04-30T21:29:56.375Z,8.03
2023-04-30T21:34:59.836Z,4.80
2023-04-30T21:40:04.045Z,7.60
2023-04-30T21:45:09.280Z,5.73
2023-04-30T21:50:12.802Z,5.67
2023-04-30T21:55:15.971Z,6.60
2023-04-30T22:00:19.918Z,6.30
2023-04-30T22:05:23.086Z,6.40
2023-04-30T22:10:26.313Z,7.53
2023-04-30T22:15:40.699Z,7.93
2023-04-30T22:20:51.444Z,5.53
2023-04-30T22:25:55.052Z,8.20
2023-04-30T22:31:00.051Z,7.67
2023-04-30T22:36:05.613Z,6.90
2023-04-30T22:41:09.125Z,6.80
2023-04-30T22:46:14.119Z,9.93
2023-04-30T22:51:18.067Z,16.67
2023-04-30T22:56:21.303Z,16.40
2023-04-30T23:01:24.570Z,18.13
2023-04-30T23:06:30.262Z,13.20
2023-04-30T23:11:33.614Z,12.50
2023-04-30T23:16:40.448Z,13.03
2023-04-30T23:21:43.713Z,14.17
2023-04-30T23:26:47.690Z,13.20
2023-04-30T23:31:51.449Z,15.90
2023-04-30T23:36:54.715Z,13.00
2023-04-30T23:41:57.908Z,10.37
2023-04-30T23:47:01.315Z,8.10
2023-04-30T23:52:05.388Z,13.73
2023-04-30T23:57:08.645Z,12.40
